Time;durP1;ratioP1;P1;durP2;ratioP2;P2;SDS_P1;SDS_P2;PMS_P1;PMS_P2;Temp;Humidity;BMP_temperature;BMP_pressure;BME280_temperature;BME280_humidity;BME280_pressure;Samples;Min_cycle;Max_cycle;Signal;HPM_P1;HPM_P2
2022/10/07 00:00:59;;;;;;;7.78;4.60;;;;;;;13.43;65.42;101252.62;1669942;84;21888;-76
2022/10/07 00:03:25;;;;;;;7.25;4.60;;;;;;;13.41;65.50;101261.20;1661592;84;21084;-71
2022/10/07 00:06:17;;;;;;;7.53;4.85;;;;;;;13.40;65.60;101262.62;1667726;84;21075;-72
2022/10/07 00:08:47;;;;;;;8.65;4.75;;;;;;;13.36;65.76;101258.04;1666791;84;21090;-72
2022/10/07 00:11:22;;;;;;;8.13;4.80;;;;;;;13.34;65.89;101260.45;1639395;86;21099;-70
2022/10/07 00:13:52;;;;;;;7.50;4.70;;;;;;;13.34;65.88;101259.12;1670769;84;21919;-71
2022/10/07 00:16:25;;;;;;;7.50;4.70;;;;;;;13.34;65.90;101259.12;1671294;84;20999;-71
2022/10/07 00:18:55;;;;;;;8.10;5.05;;;;;;;13.30;66.01;101258.98;1659769;85;21435;-70
2022/10/07 00:21:21;;;;;;;8.50;4.58;;;;;;;13.28;66.20;101258.27;1661328;85;21016;-74
2022/10/07 00:23:48;;;;;;;10.00;5.03;;;;;;;13.26;66.23;101260.19;1662168;85;21042;-71
2022/10/07 00:26:18;;;;;;;8.20;5.20;;;;;;;13.22;66.32;101268.00;1668116;84;21736;-71
2022/10/07 00:28:45;;;;;;;9.73;4.92;;;;;;;13.18;66.44;101272.20;1694215;84;21006;-71
2022/10/07 00:31:15;;;;;;;7.25;4.90;;;;;;;13.11;66.56;101268.31;1693430;83;21072;-71
2022/10/07 00:33:42;;;;;;;8.55;5.40;;;;;;;13.08;66.79;101266.38;1695780;83;21077;-71
2022/10/07 00:36:12;;;;;;;8.73;5.17;;;;;;;13.05;66.94;101267.95;1692301;83;21586;-71
2022/10/07 00:38:39;;;;;;;6.33;5.00;;;;;;;13.06;67.16;101271.80;1695606;83;22667;-74
2022/10/07 00:41:08;;;;;;;11.22;5.17;;;;;;;13.07;67.28;101273.49;1675678;84;21070;-70
2022/10/07 00:43:35;;;;;;;8.03;5.20;;;;;;;13.11;67.31;101273.61;1665977;84;21034;-70
2022/10/07 00:46:24;;;;;;;8.13;5.10;;;;;;;13.15;67.29;101271.59;1639099;85;20996;-71
2022/10/07 00:48:53;;;;;;;8.03;5.65;;;;;;;13.17;67.43;101269.18;1669056;84;21426;-71
2022/10/07 00:51:19;;;;;;;9.73;4.83;;;;;;;13.20;67.43;101267.28;1630192;86;22571;-71
2022/10/07 00:53:47;;;;;;;11.97;4.85;;;;;;;13.22;67.47;101266.23;1687221;83;20996;-71
2022/10/07 00:56:14;;;;;;;7.05;4.30;;;;;;;13.20;67.40;101288.02;1719876;82;21020;-70
2022/10/07 00:58:40;;;;;;;8.90;5.12;;;;;;;13.09;67.32;101286.16;1728457;82;21014;-70
2022/10/07 01:01:08;;;;;;;10.53;5.03;;;;;;;13.00;67.93;101281.54;1723716;81;21054;-76
2022/10/07 01:03:36;;;;;;;7.97;4.67;;;;;;;13.01;68.49;101278.41;1722447;82;23228;-70
2022/10/07 01:06:04;;;;;;;8.38;4.90;;;;;;;13.06;68.63;101276.27;1714754;82;20859;-70
2022/10/07 01:08:32;;;;;;;8.95;5.00;;;;;;;13.09;68.82;101283.50;1675664;84;21437;-70
2022/10/07 01:11:40;;;;;;;9.28;4.90;;;;;;;13.11;68.82;101286.03;1669548;84;21730;-72
2022/10/07 01:14:44;;;;;;;8.40;5.45;;;;;;;13.11;68.92;101289.53;1645124;85;21036;-71
2022/10/07 01:17:26;;;;;;;8.38;5.15;;;;;;;13.15;69.04;101287.51;1680658;84;21862;-71
2022/10/07 01:20:08;;;;;;;8.45;5.55;;;;;;;13.20;69.12;101289.83;1679600;84;21051;-71
2022/10/07 01:23:33;;;;;;;6.75;4.97;;;;;;;13.24;69.11;101291.31;1665201;84;21008;-71
2022/10/07 01:26:21;;;;;;;8.35;5.58;;;;;;;13.24;69.03;101297.94;1696870;84;21052;-70
2022/10/07 01:29:20;;;;;;;6.12;4.92;;;;;;;13.23;69.03;101305.54;1679453;84;21395;-70
2022/10/07 01:31:52;;;;;;;7.83;5.35;;;;;;;13.22;69.11;101295.41;1669865;84;21933;-70
2022/10/07 01:34:19;;;;;;;9.45;5.75;;;;;;;13.21;69.32;101300.32;1680947;83;21012;-71
2022/10/07 01:36:49;;;;;;;7.92;6.00;;;;;;;13.20;69.42;101300.44;1660598;85;21025;-70
2022/10/07 01:39:14;;;;;;;11.48;5.90;;;;;;;13.20;69.55;101303.94;1665130;84;21489;-71
2022/10/07 01:41:41;;;;;;;11.60;5.45;;;;;;;13.21;69.72;101305.63;1665091;84;21046;-71
2022/10/07 01:44:09;;;;;;;12.82;6.05;;;;;;;13.20;69.71;101303.94;1682364;84;22472;-70
2022/10/07 01:46:36;;;;;;;9.48;5.72;;;;;;;13.21;69.77;101306.11;1655436;84;21010;-72
2022/10/07 01:49:05;;;;;;;12.95;5.50;;;;;;;13.21;69.77;101306.95;1659139;84;21162;-70
2022/10/07 01:51:36;;;;;;;12.60;8.90;;;;;;;13.20;69.73;101303.94;1663466;84;21037;-70
2022/10/07 01:54:31;;;;;;;144.05;82.33;;;;;;;13.18;69.72;101302.70;1681427;81;21347;-71
2022/10/07 01:57:09;;;;;;;69.22;48.35;;;;;;;13.15;69.66;101309.58;1709657;82;21897;-70
2022/10/07 02:00:06;;;;;;;43.58;31.95;;;;;;;13.12;69.71;101320.42;1722475;82;20974;-70
2022/10/07 02:02:55;;;;;;;33.33;23.85;;;;;;;13.10;69.84;101317.02;1724246;82;21015;-69
2022/10/07 02:05:39;;;;;;;16.97;11.25;;;;;;;13.09;69.89;101314.00;1717106;81;20979;-70
2022/10/07 02:08:38;;;;;;;8.68;7.50;;;;;;;13.07;69.99;101308.45;1721988;82;20959;-71
2022/10/07 02:11:26;;;;;;;9.48;6.83;;;;;;;13.05;70.04;101318.34;1720871;82;22330;-70
2022/10/07 02:14:17;;;;;;;8.10;5.90;;;;;;;13.03;70.08;101323.77;1728238;80;20947;-70
2022/10/07 02:16:50;;;;;;;8.68;5.95;;;;;;;13.00;70.19;101323.97;1678512;83;20991;-70
2022/10/07 02:19:27;;;;;;;10.48;5.97;;;;;;;12.97;70.29;101327.34;1728347;82;20998;-70
2022/10/07 02:21:56;;;;;;;12.65;5.95;;;;;;;12.91;70.39;101335.26;1701761;82;21471;-73
2022/10/07 02:24:26;;;;;;;51.40;42.88;;;;;;;12.88;70.46;101338.14;1730813;81;21532;-70
2022/10/07 02:26:54;;;;;;;45.85;30.12;;;;;;;12.88;70.53;101346.09;1690636;85;20995;-71
2022/10/07 02:29:22;;;;;;;17.42;12.37;;;;;;;12.86;70.69;101344.05;1713439;82;20948;-71
2022/10/07 02:31:49;;;;;;;12.00;8.18;;;;;;;12.85;70.92;101344.53;1716118;81;20976;-71
2022/10/07 02:34:18;;;;;;;11.88;6.65;;;;;;;12.85;71.09;101345.85;1722991;81;21092;-71
2022/10/07 02:36:52;;;;;;;13.53;6.37;;;;;;;12.85;71.12;101343.69;1719779;81;22567;-72
2022/10/07 02:39:18;;;;;;;11.83;6.40;;;;;;;12.84;71.16;101345.97;1732033;82;20963;-71
2022/10/07 02:42:08;;;;;;;11.83;6.62;;;;;;;12.84;71.16;101348.63;1692244;83;20998;-71
2022/10/07 02:44:46;;;;;;;7.05;5.90;;;;;;;12.84;71.21;101351.28;1729999;81;21169;-70
2022/10/07 02:47:38;;;;;;;9.45;6.40;;;;;;;12.78;71.37;101342.44;1725972;81;21352;-71
2022/10/07 02:50:09;;;;;;;10.05;5.87;;;;;;;12.75;71.48;101347.97;1714225;82;21945;-72
2022/10/07 02:52:36;;;;;;;13.85;6.12;;;;;;;12.71;71.68;101352.63;1716941;82;20930;-70
2022/10/07 02:55:06;;;;;;;10.40;6.20;;;;;;;12.65;71.85;101358.39;1721760;80;21398;-70
2022/10/07 02:57:37;;;;;;;10.30;6.60;;;;;;;12.61;71.90;101355.58;1693993;82;21098;-71
2022/10/07 03:00:08;;;;;;;11.80;6.85;;;;;;;12.56;72.17;101361.23;1717012;83;21525;-73
2022/10/07 03:02:54;;;;;;;10.10;6.65;;;;;;;12.53;72.29;101365.87;1708744;82;22616;-70
2022/10/07 03:05:29;;;;;;;10.00;6.65;;;;;;;12.54;72.54;101366.25;1671040;83;21122;-72
2022/10/07 03:08:01;;;;;;;125.72;69.60;;;;;;;12.51;72.62;101369.13;1723688;82;21065;-71
2022/10/07 03:10:28;;;;;;;177.02;98.35;;;;;;;12.52;72.63;101370.81;1728450;82;20991;-70
2022/10/07 03:12:55;;;;;;;246.45;167.85;;;;;;;12.50;72.74;101374.06;1715714;82;21077;-70
2022/10/07 03:15:22;;;;;;;85.50;58.50;;;;;;;12.48;72.86;101372.84;1717303;82;21910;-69
2022/10/07 03:17:50;;;;;;;19.73;13.85;;;;;;;12.47;73.01;101369.84;1716349;82;21569;-73
2022/10/07 03:20:17;;;;;;;14.60;9.00;;;;;;;12.45;73.30;101378.38;1718623;82;21015;-81
2022/10/07 03:22:45;;;;;;;15.72;7.85;;;;;;;12.42;73.38;101377.25;1713727;82;20988;-71
2022/10/07 03:25:14;;;;;;;9.53;6.97;;;;;;;12.43;73.45;101387.38;1716489;82;21016;-71
2022/10/07 03:27:41;;;;;;;8.55;6.72;;;;;;;12.41;73.57;101391.45;1714598;82;21824;-72
2022/10/07 03:30:10;;;;;;;10.98;6.75;;;;;;;12.40;73.57;101396.39;1700301;83;20952;-72
2022/10/07 03:32:38;;;;;;;8.50;6.28;;;;;;;12.39;73.71;101401.33;1699269;82;21478;-72
2022/10/07 03:35:07;;;;;;;11.28;6.95;;;;;;;12.38;73.68;101398.31;1718686;82;21550;-73
2022/10/07 03:37:33;;;;;;;12.80;7.17;;;;;;;12.34;73.87;101394.16;1699735;82;21073;-73
2022/10/07 03:40:00;;;;;;;10.30;6.80;;;;;;;12.30;73.90;101393.55;1721351;82;21892;-72
2022/10/07 03:42:27;;;;;;;9.13;6.60;;;;;;;12.28;73.95;101393.29;1724827;82;21003;-73
2022/10/07 03:44:54;;;;;;;8.25;6.10;;;;;;;12.28;74.07;101397.27;1716649;82;21059;-74
2022/10/07 03:47:21;;;;;;;7.62;6.50;;;;;;;12.27;74.07;101402.20;1716943;82;20980;-72
2022/10/07 03:49:48;;;;;;;10.70;7.17;;;;;;;12.24;74.21;101401.91;1728308;82;21035;-73
2022/10/07 03:52:14;;;;;;;8.85;6.47;;;;;;;12.23;74.32;101399.37;1722946;82;21816;-73
2022/10/07 03:54:41;;;;;;;7.95;6.20;;;;;;;12.24;74.41;101403.71;1724942;81;21095;-74
2022/10/07 03:57:48;;;;;;;12.68;6.80;;;;;;;12.21;74.63;101405.27;1729365;81;20967;-72
2022/10/07 03:59:38;;;;;;;11.43;6.67;;;;;;;12.19;74.81;101402.72;1719658;81;21025;-73
2022/10/07 04:02:06;;;;;;;10.00;7.00;;;;;;;12.20;75.08;101409.71;1719098;81;21149;-72
2022/10/07 04:04:33;;;;;;;36.48;22.70;;;;;;;12.21;75.18;101407.91;1704401;81;22616;-72
2022/10/07 04:07:00;;;;;;;24.32;12.45;;;;;;;12.21;75.22;101414.53;1726392;81;21443;-73
2022/10/07 04:09:29;;;;;;;11.00;8.03;;;;;;;12.21;75.27;101411.41;1726489;81;21022;-72
2022/10/07 04:11:55;;;;;;;14.10;7.53;;;;;;;12.20;75.29;101418.14;1722210;81;21109;-72
2022/10/07 04:14:22;;;;;;;9.63;7.12;;;;;;;12.18;75.37;101414.75;1728102;81;21007;-71
2022/10/07 04:16:50;;;;;;;13.43;9.00;;;;;;;12.19;75.38;101413.80;1672754;81;22555;-69
2022/10/07 04:19:16;;;;;;;10.15;7.58;;;;;;;12.17;75.50;101414.39;1719833;81;20956;-70
2022/10/07 04:21:45;;;;;;;8.73;7.30;;;;;;;12.16;75.64;101415.31;1697868;81;21003;-71
2022/10/07 04:24:12;;;;;;;13.13;7.72;;;;;;;12.15;76.05;101420.24;1724590;81;21474;-69
2022/10/07 04:26:39;;;;;;;11.20;7.20;;;;;;;12.15;76.14;101421.09;1729440;81;21537;-68
2022/10/07 04:29:07;;;;;;;9.45;7.37;;;;;;;12.17;76.25;101421.01;1724300;81;21831;-68
2022/10/07 04:31:34;;;;;;;11.28;7.70;;;;;;;12.18;76.33;101428.00;1719636;81;21560;-69
2022/10/07 04:34:03;;;;;;;10.05;7.35;;;;;;;12.19;76.48;101427.89;1723819;81;21003;-72
2022/10/07 04:36:31;;;;;;;10.60;7.55;;;;;;;12.19;76.51;101424.39;1723006;81;20975;-68
2022/10/07 04:39:00;;;;;;;8.98;6.95;;;;;;;12.22;76.54;101429.47;1743889;81;21023;-68
2022/10/07 04:41:28;;;;;;;9.75;6.87;;;;;;;12.23;76.55;101437.30;1732347;81;21938;-68
2022/10/07 04:43:55;;;;;;;8.63;7.70;;;;;;;12.26;76.57;101441.08;1725431;81;21066;-69
2022/10/07 04:46:22;;;;;;;10.85;8.33;;;;;;;12.27;76.50;101440.13;1720305;81;21055;-69
2022/10/07 04:48:52;;;;;;;9.25;7.45;;;;;;;12.28;76.53;101441.81;1752956;80;20979;-70
2022/10/07 04:51:21;;;;;;;11.65;7.30;;;;;;;12.28;76.62;101443.63;1722360;80;21423;-69
2022/10/07 04:53:53;;;;;;;10.43;6.92;;;;;;;12.30;76.75;101441.23;1725657;81;22337;-69
2022/10/07 04:56:22;;;;;;;9.35;6.97;;;;;;;12.32;76.80;101442.44;1740020;81;21442;-69
2022/10/07 04:58:49;;;;;;;8.55;7.53;;;;;;;12.34;76.83;101441.84;1745971;81;20982;-69
2022/10/07 05:01:16;;;;;;;9.80;7.33;;;;;;;12.35;76.85;101448.84;1750717;81;21043;-76
2022/10/07 05:03:45;;;;;;;9.23;7.28;;;;;;;12.37;76.87;101446.95;1737705;81;21023;-68
2022/10/07 05:06:13;;;;;;;10.35;6.75;;;;;;;12.38;76.94;101448.64;1731468;81;21916;-67
2022/10/07 05:08:42;;;;;;;8.25;6.95;;;;;;;12.40;77.02;101452.03;1739497;81;21054;-68
2022/10/07 05:11:09;;;;;;;13.75;7.03;;;;;;;12.44;77.10;101453.97;1703927;81;21580;-76
2022/10/07 05:13:39;;;;;;;11.18;7.33;;;;;;;12.48;77.16;101460.78;1722107;81;20986;-68
2022/10/07 05:16:10;;;;;;;8.00;6.90;;;;;;;12.50;77.16;101458.38;1729287;81;21498;-67
2022/10/07 05:18:38;;;;;;;8.50;6.90;;;;;;;12.53;77.17;101462.61;1752642;81;21940;-67
2022/10/07 05:21:08;;;;;;;9.25;7.20;;;;;;;12.55;77.34;101466.87;1739310;81;21050;-67
2022/10/07 05:23:36;;;;;;;11.20;7.28;;;;;;;12.58;77.43;101471.94;1729078;81;21027;-69
2022/10/07 05:26:08;;;;;;;8.33;7.15;;;;;;;12.61;77.49;101474.37;1726796;81;21022;-69
2022/10/07 05:28:36;;;;;;;9.08;6.87;;;;;;;12.66;77.50;101482.02;1725508;81;21007;-69
2022/10/07 05:31:06;;;;;;;14.68;7.33;;;;;;;12.70;77.53;101483.48;1708023;81;21896;-69
2022/10/07 05:33:36;;;;;;;9.20;7.00;;;;;;;12.74;77.61;101486.75;1725605;81;21138;-68
2022/10/07 05:36:06;;;;;;;8.28;6.72;;;;;;;12.78;77.65;101486.92;1733448;81;21027;-68
2022/10/07 05:38:37;;;;;;;9.48;6.75;;;;;;;12.83;77.64;101494.05;1696259;83;21106;-68
2022/10/07 05:41:06;;;;;;;9.80;6.83;;;;;;;12.87;77.63;101494.22;1742568;81;21054;-68
2022/10/07 05:43:36;;;;;;;10.45;6.10;;;;;;;12.94;77.61;101495.48;1721875;81;21890;-68
2022/10/07 05:46:07;;;;;;;8.93;6.60;;;;;;;13.00;77.50;101498.16;1720213;81;21022;-71
2022/10/07 05:48:36;;;;;;;12.00;6.55;;;;;;;13.04;77.46;101503.63;1728416;80;21020;-69
2022/10/07 05:51:03;;;;;;;7.30;5.65;;;;;;;13.11;77.32;101507.03;1740296;81;21011;-69
2022/10/07 05:53:30;;;;;;;8.63;6.37;;;;;;;13.21;77.16;101511.23;1720689;83;21054;-69
2022/10/07 05:55:57;;;;;;;10.18;5.95;;;;;;;13.24;76.70;101512.36;1710429;81;21812;-68
2022/10/07 05:58:26;;;;;;;8.45;6.20;;;;;;;13.27;76.45;101516.11;1723180;82;21317;-69
2022/10/07 06:00:57;;;;;;;9.38;5.83;;;;;;;13.28;76.08;101520.45;1750473;82;21039;-69
2022/10/07 06:03:25;;;;;;;8.65;5.47;;;;;;;13.33;75.95;101523.62;1724062;82;21074;-69
2022/10/07 06:05:54;;;;;;;9.50;5.45;;;;;;;13.39;75.88;101520.98;1747141;81;21023;-71
2022/10/07 06:08:22;;;;;;;10.68;5.62;;;;;;;13.46;75.68;101528.40;1720423;83;21544;-69
2022/10/07 06:13:37;;;;;;;8.03;5.50;;;;;;;13.58;75.18;101530.62;1720651;81;21054;-68
2022/10/07 06:16:06;;;;;;;8.98;5.53;;;;;;;13.65;74.71;101536.34;1737333;81;21038;-69
2022/10/07 06:18:37;;;;;;;12.20;5.35;;;;;;;13.68;74.37;101537.43;1704736;82;21074;-69
2022/10/07 06:21:04;;;;;;;6.53;4.92;;;;;;;13.73;74.15;101540.12;1742416;81;21797;-69
2022/10/07 06:23:31;;;;;;;8.95;5.05;;;;;;;13.76;73.66;101529.75;1711696;82;21586;-71
2022/10/07 06:26:05;;;;;;;5.70;4.80;;;;;;;13.79;73.50;101531.33;1744259;81;21046;-71
2022/10/07 06:28:38;;;;;;;9.55;5.20;;;;;;;13.84;73.37;101535.34;1750652;80;21519;-70
2022/10/07 06:31:13;;;;;;;7.87;5.22;;;;;;;13.89;73.05;101538.97;1749873;81;22016;-72
2022/10/07 06:33:41;;;;;;;9.23;4.90;;;;;;;13.94;72.83;101542.14;1713490;83;21830;-70
2022/10/07 06:36:11;;;;;;;8.55;4.75;;;;;;;14.00;72.69;101540.37;1723474;81;21031;-76
2022/10/07 06:38:39;;;;;;;10.05;4.75;;;;;;;14.09;72.64;101544.11;1704022;82;21038;-70
2022/10/07 06:41:07;;;;;;;8.00;4.65;;;;;;;14.16;72.15;101541.36;1715241;82;21497;-70
2022/10/07 06:43:35;;;;;;;9.28;4.45;;;;;;;14.24;71.93;101541.63;1704533;83;21066;-69
2022/10/07 06:46:04;;;;;;;8.98;4.45;;;;;;;14.32;71.81;101540.56;1735121;81;21931;-73
2022/10/07 06:48:33;;;;;;;7.85;4.35;;;;;;;14.42;71.32;101540.70;1737724;82;21036;-70
2022/10/07 06:51:02;;;;;;;6.50;4.47;;;;;;;14.48;71.09;101537.63;1739986;82;21441;-70
2022/10/07 06:53:29;;;;;;;6.55;4.40;;;;;;;14.52;70.52;101544.38;1722895;81;21546;-69
2022/10/07 06:56:02;;;;;;;5.80;3.92;;;;;;;14.53;70.24;101541.59;1729163;82;21039;-72
2022/10/07 06:58:30;;;;;;;6.65;4.20;;;;;;;14.52;69.73;101550.55;1747272;82;21825;-74
2022/10/07 07:01:01;;;;;;;9.25;4.40;;;;;;;14.54;69.37;101547.28;1733632;82;21202;-70
2022/10/07 07:03:28;;;;;;;6.87;4.03;;;;;;;14.54;69.17;101542.44;1726073;82;21513;-69
2022/10/07 07:05:55;;;;;;;9.58;4.10;;;;;;;14.60;69.21;101545.48;1743048;81;21058;-73
2022/10/07 07:08:30;;;;;;;8.23;3.83;;;;;;;14.69;68.83;101543.08;1738537;82;21305;-74
2022/10/07 07:11:34;;;;;;;6.90;4.30;;;;;;;14.74;68.49;101551.53;1716599;81;22406;-71
2022/10/07 07:13:35;;;;;;;8.33;3.52;;;;;;;14.80;68.30;101551.91;1709964;82;21081;-74
2022/10/07 07:16:02;;;;;;;5.97;3.50;;;;;;;14.87;67.68;101551.80;1713692;83;21519;-73
2022/10/07 07:18:30;;;;;;;8.83;3.62;;;;;;;14.96;67.58;101546.23;1710834;82;21007;-72
2022/10/07 07:21:03;;;;;;;6.85;3.40;;;;;;;15.07;67.22;101552.03;1716443;82;21019;-72
2022/10/07 07:23:31;;;;;;;8.18;3.75;;;;;;;15.12;66.66;101550.67;1726467;81;21920;-70
2022/10/07 07:25:59;;;;;;;7.10;3.25;;;;;;;15.17;66.26;101549.84;1694674;83;21147;-70
2022/10/07 07:28:26;;;;;;;8.93;3.50;;;;;;;15.21;65.87;101542.93;1723873;82;21283;-72
2022/10/07 07:30:53;;;;;;;8.13;3.40;;;;;;;15.29;65.91;101542.67;1718069;82;21093;-72
2022/10/07 07:33:20;;;;;;;4.50;3.10;;;;;;;15.40;65.37;101547.97;1712440;83;21031;-72
2022/10/07 07:35:47;;;;;;;5.78;2.80;;;;;;;15.43;64.89;101541.06;1696084;83;21973;-71
2022/10/07 07:38:13;;;;;;;6.22;3.20;;;;;;;15.45;64.58;101539.14;1751963;80;21027;-74
2022/10/07 07:40:40;;;;;;;8.20;2.90;;;;;;;15.49;64.37;101533.55;1725896;81;21395;-73
2022/10/07 07:43:07;;;;;;;7.97;2.90;;;;;;;15.56;63.93;101538.27;1719550;82;21446;-72
2022/10/07 07:45:35;;;;;;;5.90;2.98;;;;;;;15.67;63.75;101541.41;1701382;83;21074;-75
2022/10/07 07:48:04;;;;;;;5.50;2.70;;;;;;;15.81;63.57;101541.09;1728678;82;21589;-70
2022/10/07 07:50:31;;;;;;;9.60;3.15;;;;;;;15.93;63.03;101533.44;1714050;82;21011;-70
2022/10/07 07:53:01;;;;;;;6.40;2.70;;;;;;;16.00;62.13;101538.59;1712037;82;21048;-71
2022/10/07 07:55:27;;;;;;;4.83;2.52;;;;;;;16.05;62.09;101528.89;1726103;82;21042;-73
2022/10/07 07:57:54;;;;;;;5.22;2.50;;;;;;;16.09;61.44;101536.13;1714901;83;21038;-74
2022/10/07 08:00:21;;;;;;;14.85;10.28;;;;;;;16.09;60.65;101530.80;1717600;83;21821;-75
2022/10/07 08:02:55;;;;;;;8.03;5.12;;;;;;;16.03;60.44;101536.17;1691978;83;48461;-72
2022/10/07 08:05:23;;;;;;;4.85;3.25;;;;;;;16.03;60.53;101530.84;1717746;83;21075;-71
2022/10/07 08:07:50;;;;;;;4.92;2.42;;;;;;;16.09;60.69;101528.98;1717409;83;21124;-71
2022/10/07 08:10:19;;;;;;;4.65;2.60;;;;;;;16.22;60.66;101527.48;1719084;83;21572;-73
2022/10/07 08:12:45;;;;;;;5.37;2.52;;;;;;;16.33;60.05;101531.41;1719551;82;22868;-71
2022/10/07 08:15:13;;;;;;;4.40;2.70;;;;;;;16.39;59.33;101525.53;1740122;82;21019;-70
2022/10/07 08:17:40;;;;;;;5.45;2.62;;;;;;;16.43;58.86;101530.97;1738902;82;21038;-72
2022/10/07 08:20:09;;;;;;;5.58;2.37;;;;;;;16.47;58.86;101524.87;1719059;82;21091;-73
2022/10/07 08:22:38;;;;;;;6.83;2.40;;;;;;;16.55;58.67;101528.58;1718778;82;21023;-71
2022/10/07 08:25:06;;;;;;;6.97;2.15;;;;;;;16.72;58.81;101530.31;1740300;82;21870;-72
2022/10/07 08:27:34;;;;;;;4.28;2.20;;;;;;;16.88;58.63;101523.48;1732495;81;21011;-71
2022/10/07 08:30:01;;;;;;;4.50;2.02;;;;;;;17.04;58.17;101522.14;1741043;81;21072;-75
2022/10/07 08:32:29;;;;;;;4.33;1.92;;;;;;;17.18;57.70;101531.13;1718141;82;21502;-74
2022/10/07 08:34:56;;;;;;;7.45;2.10;;;;;;;17.29;57.05;101533.67;1717324;83;21048;-72
2022/10/07 08:37:22;;;;;;;6.67;2.33;;;;;;;17.40;56.28;101531.38;1718274;82;22186;-72
2022/10/07 08:39:49;;;;;;;5.55;2.30;;;;;;;17.51;56.16;101529.07;1718570;83;21058;-75
2022/10/07 08:42:37;;;;;;;4.83;1.77;;;;;;;17.54;54.39;101524.78;1692752;83;21094;-74
2022/10/07 08:45:09;;;;;;;4.90;1.75;;;;;;;17.51;54.79;101528.58;1722470;82;21081;-71
2022/10/07 08:47:43;;;;;;;5.08;2.08;;;;;;;17.57;55.58;101525.36;1726854;81;21461;-73
2022/10/07 08:50:21;;;;;;;4.78;1.98;;;;;;;17.67;55.42;101526.22;1717524;83;21833;-72
2022/10/07 08:53:02;;;;;;;6.50;2.00;;;;;;;17.75;54.13;101525.52;1690456;84;21050;-74
2022/10/07 08:55:46;;;;;;;4.92;2.10;;;;;;;17.79;53.99;101526.10;1702700;82;21433;-73
2022/10/07 08:58:39;;;;;;;6.20;2.42;;;;;;;17.87;53.95;101531.10;1716401;81;21596;-70
2022/10/07 09:01:37;;;;;;;4.65;1.90;;;;;;;17.87;53.95;101525.75;1723052;82;21026;-70
2022/10/07 09:04:52;;;;;;;4.62;2.50;;;;;;;17.78;54.23;101531.10;1716478;82;22904;-70
2022/10/07 09:07:22;;;;;;;5.30;2.35;;;;;;;17.80;54.24;101535.31;1703629;82;21019;-70
2022/10/07 09:10:10;;;;;;;7.83;2.10;;;;;;;17.92;54.01;101528.83;1716344;83;20976;-70
2022/10/07 09:12:59;;;;;;;4.22;1.80;;;;;;;18.00;54.00;101528.13;1716348;82;21019;-70
2022/10/07 09:15:50;;;;;;;5.97;2.10;;;;;;;18.10;52.85;101527.63;1713184;82;21019;-70
2022/10/07 09:18:26;;;;;;;4.20;1.77;;;;;;;18.21;52.52;101527.96;1716365;83;21499;-70
2022/10/07 09:20:54;;;;;;;5.53;1.60;;;;;;;18.28;51.16;101513.88;1700511;83;21471;-70
2022/10/07 09:23:25;;;;;;;3.92;1.60;;;;;;;18.27;50.05;101518.88;1699599;83;21022;-70
2022/10/07 09:25:51;;;;;;;5.78;1.70;;;;;;;18.21;50.10;101523.45;1698549;83;21406;-70
2022/10/07 09:28:20;;;;;;;4.17;1.52;;;;;;;18.18;49.49;101521.57;1716182;83;21011;-70
2022/10/07 09:30:48;;;;;;;2.98;1.60;;;;;;;18.14;49.90;101529.02;1716241;83;23430;-70
2022/10/07 09:33:17;;;;;;;5.53;1.70;;;;;;;18.12;49.02;101517.63;1715999;83;21082;-70
2022/10/07 09:35:54;;;;;;;3.47;1.70;;;;;;;18.11;49.73;101524.45;1716146;82;21087;-70
2022/10/07 09:38:34;;;;;;;5.45;1.60;;;;;;;18.13;49.56;101521.98;1688923;85;20980;-70
2022/10/07 09:41:19;;;;;;;6.67;1.85;;;;;;;18.20;49.99;101519.59;1743373;82;20967;-70
2022/10/07 09:43:57;;;;;;;3.33;1.50;;;;;;;18.34;49.78;101516.98;1746843;82;21538;-71
2022/10/07 09:46:51;;;;;;;3.95;1.70;;;;;;;18.48;49.47;101515.17;1715710;83;20872;-70
2022/10/07 09:49:33;;;;;;;3.10;1.42;;;;;;;18.65;48.97;101511.77;1716184;82;21019;-70
2022/10/07 09:52:15;;;;;;;8.00;1.67;;;;;;;18.80;48.82;101504.09;1716077;82;21088;-70
2022/10/07 09:54:45;;;;;;;3.90;1.87;;;;;;;18.98;48.13;101505.48;1718407;82;20963;-71
2022/10/07 09:57:34;;;;;;;8.33;1.98;;;;;;;19.09;47.20;101500.77;1745525;82;21439;-70
2022/10/07 10:00:20;;;;;;;3.15;1.42;;;;;;;19.15;47.65;101503.35;1725021;82;20976;-70
2022/10/07 10:02:57;;;;;;;5.22;1.50;;;;;;;19.37;47.57;101500.73;1732026;82;21043;-70
2022/10/07 10:05:38;;;;;;;2.80;1.40;;;;;;;19.55;46.88;101497.58;1715506;83;20946;-70
2022/10/07 10:08:30;;;;;;;4.20;1.50;;;;;;;19.66;46.34;101489.34;1715416;82;21059;-70
2022/10/07 10:11:04;;;;;;;5.03;1.37;;;;;;;19.86;47.14;101487.33;1729976;81;20973;-71
2022/10/07 10:13:37;;;;;;;6.30;1.65;;;;;;;20.13;45.90;101481.00;1723578;81;21055;-70
2022/10/07 10:16:07;;;;;;;3.15;1.50;;;;;;;20.24;44.61;101481.23;1721175;83;20960;-70
2022/10/07 10:18:39;;;;;;;4.05;1.35;;;;;;;20.34;44.56;101477.11;1719697;83;21014;-70
2022/10/07 10:21:20;;;;;;;7.87;1.55;;;;;;;20.39;43.92;101470.78;1697023;83;21023;-70
2022/10/07 10:23:52;;;;;;;5.50;1.85;;;;;;;20.49;44.38;101471.03;1714877;82;21861;-70
2022/10/07 10:26:32;;;;;;;5.60;1.50;;;;;;;20.58;43.35;101467.39;1746108;81;20987;-70
2022/10/07 10:29:13;;;;;;;3.37;1.40;;;;;;;20.69;43.56;101470.29;1736613;81;20940;-70
2022/10/07 10:32:01;;;;;;;3.92;1.42;;;;;;;20.84;42.69;101471.37;1702692;82;20960;-72
2022/10/07 10:34:52;;;;;;;4.00;1.40;;;;;;;21.01;42.06;101466.88;1715212;82;20993;-71
2022/10/07 10:37:47;;;;;;;6.60;1.70;;;;;;;21.11;41.46;101462.20;1714836;82;21831;-73
2022/10/07 10:40:43;;;;;;;2.80;1.32;;;;;;;21.16;41.07;101450.98;1721843;81;21007;-71
2022/10/07 10:43:26;;;;;;;5.72;1.50;;;;;;;21.17;40.32;101454.51;1744844;82;20948;-80
2022/10/07 10:46:25;;;;;;;3.92;1.37;;;;;;;21.18;40.22;101453.00;1710533;82;21008;-70
2022/10/07 10:49:19;;;;;;;5.75;1.20;;;;;;;21.20;39.77;101448.80;1724542;81;21063;-71
2022/10/07 10:52:28;;;;;;;3.40;1.37;;;;;;;21.24;40.91;101448.31;1715362;83;21950;-71
2022/10/07 10:55:18;;;;;;;4.45;1.40;;;;;;;21.37;40.01;101447.86;1715365;83;21126;-71
2022/10/07 10:58:14;;;;;;;4.12;1.30;;;;;;;21.31;39.64;101442.63;1717063;81;21043;-70
2022/10/07 11:00:54;;;;;;;4.95;1.22;;;;;;;21.35;39.84;101443.16;1718535;83;20970;-71
2022/10/07 11:03:56;;;;;;;3.25;1.50;;;;;;;21.48;39.86;101438.12;1693919;84;21019;-71
2022/10/07 11:06:25;;;;;;;3.50;1.40;;;;;;;21.68;38.54;101435.94;1693917;84;22503;-71
2022/10/07 11:08:51;;;;;;;4.08;1.50;;;;;;;21.64;38.76;101429.23;1710882;81;21011;-71
2022/10/07 11:11:19;;;;;;;5.08;1.60;;;;;;;21.69;39.12;101433.08;1673893;83;21023;-71
2022/10/07 11:13:54;;;;;;;5.30;1.40;;;;;;;21.73;38.32;101433.59;1720534;83;21622;-70
2022/10/07 11:16:43;;;;;;;3.15;1.20;;;;;;;21.77;39.15;101433.58;1714738;83;21427;-70
2022/10/07 11:19:25;;;;;;;2.30;1.17;;;;;;;21.98;39.12;101424.98;1720307;82;21747;-75
2022/10/07 11:21:52;;;;;;;5.53;1.70;;;;;;;22.24;38.21;101428.33;1690719;83;21392;-71
2022/10/07 11:24:29;;;;;;;6.17;1.20;;;;;;;22.37;37.53;101430.47;1695053;81;20975;-74
2022/10/07 11:27:21;;;;;;;3.15;1.30;;;;;;;22.33;37.37;101423.77;1690437;83;21060;-72
2022/10/07 11:30:15;;;;;;;4.35;1.30;;;;;;;22.41;37.75;101420.21;1704827;84;21024;-72
2022/10/07 11:32:55;;;;;;;6.08;1.35;;;;;;;22.65;38.38;101424.64;1691515;84;21840;-72
2022/10/07 11:35:34;;;;;;;4.50;1.22;;;;;;;22.87;37.48;101422.53;1722524;81;20976;-72
2022/10/07 11:38:15;;;;;;;2.40;1.07;;;;;;;22.96;36.94;101414.74;1692839;84;20995;-69
2022/10/07 11:40:56;;;;;;;4.23;1.47;;;;;;;23.10;36.05;101415.34;1723059;83;21094;-72
2022/10/07 11:43:34;;;;;;;3.42;1.17;;;;;;;23.09;36.00;101416.36;1692768;84;21814;-72
2022/10/07 11:46:27;;;;;;;3.83;1.60;;;;;;;23.23;35.63;101415.25;1721884;81;22278;-71
2022/10/07 11:49:05;;;;;;;2.37;1.12;;;;;;;23.25;35.49;101419.95;1682781;84;20939;-72
2022/10/07 11:51:38;;;;;;;3.30;1.60;;;;;;;23.29;35.79;101424.82;1721355;83;21079;-72
2022/10/07 11:54:07;;;;;;;3.12;1.32;;;;;;;23.45;35.10;101423.00;1693460;83;21022;-71